Challenge Condrusien

La Run des Gottes - Strée (6.90 km)

dimanche 13 juin 2021

Le Classement original se trouve sur : https://www.goaltiming.be          
CHALLENGE CONDRUSIEN
LA RUN DES GOTTES - MODAVE (STRÉE)
DISTANCE : 6.90 km
dimanche 13 juin 2021
 
Place Dos NOM Equipe Catégorie Pl/cat temps T/km Vitesse
1 6043 MULLENS VICTOR HUY ATHLETIC CLUB ESH 1 00:26:00 03:46 15.92
2 6082 PURPER GAULTIER - SH 1 00:26:36 03:51 15.56
3 6037 ASTOLFI DAMIEN FALZONE TEAM V1 1 00:26:58 03:54 15.35
4 6076 LAMATTINA LUCAS - JH 1 00:27:23 03:58 15.12
5 6054 BERNARD DAVID - SH 2 00:27:34 04:00 15.02
6 6073 GRIFNEE JOHAN - SH 3 00:27:52 04:02 14.86
7 2066 RAUSIN NICO AM POSITIVE ATTITUDE SH 4 00:28:27 04:07 14.55
8 6103 GRAULICH HUGUES - SH 5 00:28:39 04:09 14.45
9 6081 PIERRE FREDERIC - V1 2 00:28:50 04:11 14.36
10 6017 CHRISTIANE SIMON - ESH 2 00:28:56 04:12 14.31
11 6083 REMACLE THIERRY - V2 1 00:29:20 04:15 14.11
12 6028 GUSTIN PIERRE-JULIEN - SH 6 00:29:23 04:16 14.09
13 6085 ROBIN MICHAEL CAP BEAURAING V1 3 00:29:28 04:16 14.05
14 6019 DELYE AURELIEN - ESH 3 00:29:59 04:21 13.81
15 6100 POSTELMANS KEVIN LIFE SPORT SH 7 00:31:26 04:33 13.17
16 6084 REMACLE THOMAS - SH 8 00:31:46 04:36 13.03
17 6108 ROUHART DANIEL WAC V2 2 00:32:00 04:38 12.94
18 6110 PILLITTERI CARMELO WAC V2 3 00:32:01 04:38 12.93
19 2123 BONHOMME LAURENT MEGA NUTRITION SPORT SH 9 00:32:02 04:39 12.92
20 2059 GILLET DOMINIQUE TRAKKS TEAM V2 4 00:32:02 04:39 12.92
21 6033 LEFEVRE STEVE - V1 4 00:32:16 04:41 12.83
22 2090 LEMAIRE MYRTILLE MEGA NUTRITION SPORT ESF 1 00:32:41 04:44 12.67
23 2047 DELYE EMMANUEL - V2 5 00:32:49 04:45 12.62
24 2153 MILAZZO BASTIEN ARCH JH 2 00:33:10 04:48 12.48
25 2049 DAVELOOSE MICHAEL - V1 5 00:33:11 04:49 12.48
26 6067 DUBOIS REBECCA - SD 1 00:33:32 04:52 12.35
27 6078 MARCHAL RENAN HUY ATHLETIC CLUB JH 3 00:33:33 04:52 12.34
28 6086 ROBIN NOAM CAP BEAURAING JH 4 00:33:43 04:53 12.28
29 6040 JAA DOMINIQUE - V1 6 00:33:46 04:54 12.26
30 6093 BOLLINNE THOMAS - SH 10 00:33:48 04:54 12.25
31 6104 ROYER PHILIPPE - V3 1 00:33:48 04:54 12.25
32 6069 DUSSARD MAYA JIA ESF 2 00:34:19 04:58 12.06
33 6101 CUPPENS CHRISTIAN - V2 6 00:34:25 04:59 12.03
34 2020 GARCIA FRANCOIS-DAVID - V1 7 00:34:29 05:00 12.01
35 2161 MARCHAL ERYN HUY ATHLETIC CLUB ESF 3 00:34:55 05:04 11.86
36 2145 SNYDERS ARTHUR SER ATHL SH 11 00:34:56 05:04 11.85
37 6032 LEFEVRE SACHA - JH 5 00:35:03 05:05 11.81
38 6060 COLPIN SACHA - JH 6 00:35:34 05:09 11.64
39 2023 HOFMAN MICHAEL FAC V1 8 00:36:05 05:14 11.47
40 6036 VANSTECHELMAN EMILIE - SD 2 00:36:21 05:16 11.39
41 6074 HAOUCHINE HASSN RT SPRIMONT V2 7 00:36:30 05:17 11.34
42 6059 COLLARD CINDY FAC A1 1 00:37:08 05:23 11.15
43 2046 PLOMPTEUX CHRISTIAN MEGA NUTRITION SPORT V1 9 00:37:15 05:24 11.11
44 6058 COLINET ZINA - SD 3 00:37:23 05:25 11.07
45 6091 BARBIER JACQUELINE SER ATHL A3 1 00:37:47 05:29 10.96
46 6046 WILMET FANNY - SD 4 00:37:53 05:29 10.93
47 6012 AIDANS LAURENT - V1 10 00:38:04 05:31 10.88
48 2058 COP AURELIE - SD 5 00:38:10 05:32 10.85
49 6088 TRATSAERT GREGORY EVOLUTION 22 SH 12 00:39:26 05:43 10.50
50 6039 DONIS NATHALIE - A1 2 00:39:59 05:48 10.35
51 6068 DUCHESNE PHILIPPE - V3 2 00:40:32 05:52 10.21
52 6027 GOBLET FREDERIC - V1 11 00:40:42 05:54 10.17
53 6089 BAUMANS JOHAN - SH 13 00:41:13 05:58 10.04
54 6020 DEMARTEAU LAETITIA - SD 6 00:41:15 05:59 10.04
55 6070 ERNON ANNE - A2 1 00:41:17 05:59 10.03
56 6047 WILMET NOEMIE - SD 7 00:41:49 06:04 9.90
57 6102 COUNET AURELIE - SD 8 00:42:18 06:08 9.79
58 6107 KETTMUS TOM HUY ATHLETIC CLUB JH 7 00:42:19 06:08 9.78
59 6025 FRANCOIS CHARLOTTE UDH SD 9 00:42:20 06:08 9.78
60 2126 GATHY FLORENCE - A2 2 00:42:23 06:09 9.77
61 2027 KINET SERGE - V3 3 00:42:23 06:09 9.77
62 6077 MAERTENS CAROLINE - SD 10 00:42:42 06:11 9.70
63 6023 FARCY GWENAELLE - SD 11 00:42:43 06:11 9.69
64 6106 LEFEVRE ZOE - JF 1 00:42:54 06:13 9.65
65 2002 BOUCHAT ANNE TEAM UDH A2 3 00:43:32 06:19 9.51
66 2102 LOBET GEORGES - V3 4 00:44:00 06:23 9.41
67 2048 ROCHUS NOEMIE - A1 3 00:44:08 06:24 9.38
68 6049 ANCION ARRY - JH 8 00:44:29 06:27 9.31
69 6011 AIDANS JONATHAN - JH 9 00:44:34 06:28 9.29
70 6034 MEURIS PAULINE - SD 12 00:45:16 06:34 9.15
71 6024 FONZE STEPHANIE - SD 13 00:45:17 06:34 9.14
72 2193 JADOT MARIE - SD 14 00:45:22 06:34 9.13
73 6099 SMARRELLA STEPHANIE - SD 15 00:45:36 06:37 9.08
74 6098 KINET BENOIT - V1 12 00:45:39 06:37 9.07
75 2093 DIDION MAGALI ARCH A1 4 00:46:29 06:44 8.91
76 6021 DI FRESCO MARIA - A1 5 00:46:30 06:44 8.90
77 6042 MORTELE RUDY - V2 8 00:47:05 06:49 8.79
78 6041 MORTELE MALORY - SH 14 00:47:13 06:51 8.77
79 6087 ROUSSEAU VALERIE - A1 6 00:47:40 06:54 8.69
80 6075 JONCKHEERE MATHEO - JH 10 00:47:43 06:55 8.68
81 2069 THOMAS FRANCIS - V4 1 00:48:16 07:00 8.58
82 6096 DEWITTE CHRISTINE - A1 7 00:48:31 07:02 8.53
83 6052 ARCHAMBEAU FREDERIC - 0 1 00:48:50 07:05 8.48
84 6079 MORTEHAN AURELIE - SD 16 00:49:31 07:11 8.36
85 6094 CLOSE LUDO - V1 13 00:49:31 07:11 8.36
86 6013 BALTUS FRANCOISE JCPMF NANDRIN A2 4 00:49:41 07:12 8.33
87 6026 GILIS ANNE SOPHIE - SD 17 00:50:00 07:15 8.28
88 6015 BOURGEOIS AGNES - A1 8 00:50:15 07:17 8.24
89 6050 ANCION BARIELSA - JF 2 00:50:27 07:19 8.21
90 6105 BENTEIN STEFFI - SD 18 00:50:31 07:19 8.20
91 6062 DELGAUDINE MARIE - A1 9 00:50:31 07:19 8.20
92 6030 JASINSKI DAVID - V1 14 00:50:45 07:21 8.16
93 6035 MIGNOLET FLORENT - SH 15 00:52:13 07:34 7.93
94 2084 GILTAY ALOISE LES GAZELLES SD 19 00:52:52 07:40 7.83
95 6031 JASINSKI HUGO - ESH 4 00:54:49 07:57 7.55
96 6061 DELCOUR CINDY - A1 10 00:55:14 08:00 7.50
97 6092 BERNARD AUDREY - A1 11 00:55:14 08:00 7.50
98 6090 CHARLIER CATHERINE - XXX 1 00:56:39 08:13 7.31
99 2085 LIMBOURG CASSANDRA LES GAZELLES SD 20 00:56:58 08:15 7.27
100 2127 BULTOT EMILIE - SD 21 00:57:49 08:23 7.16
101 2086 LOVAT VERONIQUE LES GAZELLES A2 5 00:58:29 08:29 7.08
102 6095 DELMARTINO CATHERINE - SD 22 00:58:46 08:31 7.04
103 6111 LAMBERT NATHAN - JH 11 01:10:31 10:13 5.87
104 2156 MAQUET JEAN-FRANCOIS JCPMF NANDRIN V1 15 01:37:43 14:10 4.24
105 6109 COURTIN JACQUELINE - A2 6 01:38:30 14:17 4.20
106 2043 WASSON ANDRE JOG'IN ATTITUDE V2 9 01:38:30 14:17 4.20
107 2088 KABWE JEANNE - A2 7 01:43:49 15:03 3.99
108 4119 REMANS BASTIEN - SH 16 01:45:27 15:17 3.93
                 
Nos dernières videos